createdAt,value
2019-04-28T00:01:28.147Z,83.70
2019-04-28T00:03:56.731Z,84.10
2019-04-28T00:06:25.321Z,85.90
2019-04-28T00:08:53.845Z,86.10
2019-04-28T00:11:22.358Z,86.00
2019-04-28T00:13:51.825Z,85.60
2019-04-28T00:16:22.943Z,86.00
2019-04-28T00:18:51.791Z,85.50
2019-04-28T00:21:21.890Z,85.90
2019-04-28T00:23:54.715Z,86.00
2019-04-28T00:26:37.066Z,85.70
2019-04-28T00:29:05.573Z,84.90
2019-04-28T00:31:34.098Z,85.60
2019-04-28T00:34:02.723Z,86.00
2019-04-28T00:36:31.589Z,85.80
2019-04-28T00:39:01.555Z,86.30
2019-04-28T00:41:30.879Z,86.60
2019-04-28T00:43:59.571Z,87.20
2019-04-28T00:46:35.370Z,87.40
2019-04-28T00:49:03.996Z,87.30
2019-04-28T00:51:32.583Z,87.10
2019-04-28T00:54:01.451Z,87.30
2019-04-28T00:56:31.721Z,87.50
2019-04-28T00:59:01.621Z,87.40
2019-04-28T01:01:43.759Z,87.30
2019-04-28T01:04:12.385Z,87.50
2019-04-28T01:06:42.890Z,87.90
2019-04-28T01:09:11.862Z,87.40
2019-04-28T01:11:41.457Z,87.10
2019-04-28T01:14:11.441Z,87.10
2019-04-28T01:16:49.798Z,86.20
2019-04-28T01:19:22.318Z,86.60
2019-04-28T01:22:10.626Z,86.30
2019-04-28T01:24:40.242Z,86.30
2019-04-28T01:27:25.472Z,86.70
2019-04-28T01:30:05.466Z,87.20
2019-04-28T01:32:30.190Z,87.50
2019-04-28T01:34:59.844Z,87.60
2019-04-28T01:37:29.591Z,87.90
2019-04-28T01:39:59.665Z,87.50
2019-04-28T01:42:30.094Z,87.90
2019-04-28T01:45:00.490Z,87.50
2019-04-28T01:47:30.411Z,87.80
2019-04-28T01:50:01.771Z,87.80
2019-04-28T01:52:30.321Z,87.80
2019-04-28T01:55:00.480Z,87.90
2019-04-28T01:57:29.875Z,87.40
2019-04-28T01:59:59.762Z,87.40
2019-04-28T02:02:29.980Z,87.50
2019-04-28T02:05:19.666Z,88.30
2019-04-28T02:07:50.479Z,88.60
2019-04-28T02:10:21.518Z,87.90
2019-04-28T02:12:50.343Z,88.00
2019-04-28T02:15:20.184Z,87.80
2019-04-28T02:17:50.022Z,88.10
2019-04-28T02:20:20.515Z,88.20
2019-04-28T02:22:53.789Z,87.90
2019-04-28T02:25:22.268Z,88.20
2019-04-28T02:27:50.758Z,88.00
2019-04-28T02:30:20.913Z,88.60
2019-04-28T02:32:51.887Z,88.00
2019-04-28T02:35:21.358Z,88.50
2019-04-28T02:37:50.540Z,88.20
2019-04-28T02:40:20.685Z,88.20
2019-04-28T02:42:52.136Z,88.00
2019-04-28T02:45:21.730Z,88.60
2019-04-28T02:47:52.485Z,88.10
2019-04-28T02:50:25.337Z,88.40
2019-04-28T02:53:01.910Z,88.00
2019-04-28T02:55:31.805Z,87.50
2019-04-28T02:58:01.462Z,87.60
2019-04-28T03:00:31.679Z,87.40
2019-04-28T03:03:01.572Z,87.40
2019-04-28T03:05:33.309Z,87.50
2019-04-28T03:08:01.243Z,87.70
2019-04-28T03:10:30.997Z,87.80
2019-04-28T03:13:01.046Z,87.70
2019-04-28T03:15:30.525Z,88.20
2019-04-28T03:18:01.933Z,87.80
2019-04-28T03:20:30.583Z,87.80
2019-04-28T03:23:00.885Z,87.90
2019-04-28T03:25:47.197Z,87.90
2019-04-28T03:28:33.657Z,87.70
2019-04-28T03:31:34.325Z,87.80
2019-04-28T03:33:41.367Z,87.40
2019-04-28T03:36:08.281Z,87.80
2019-04-28T03:38:35.027Z,87.50
2019-04-28T03:41:03.780Z,87.60
2019-04-28T03:43:32.383Z,87.50
2019-04-28T03:46:03.598Z,87.70
2019-04-28T03:48:33.735Z,87.50
2019-04-28T03:51:02.539Z,87.40
2019-04-28T03:53:31.502Z,88.60
2019-04-28T03:56:01.563Z,88.30
2019-04-28T03:58:31.191Z,87.80
2019-04-28T04:01:02.789Z,87.80
2019-04-28T04:03:30.574Z,87.70
2019-04-28T04:06:00.748Z,87.80
2019-04-28T04:08:30.930Z,87.90
2019-04-28T04:11:04.553Z,88.00
2019-04-28T04:13:34.757Z,87.90
2019-04-28T04:16:20.730Z,88.20
2019-04-28T04:18:53.623Z,88.40
2019-04-28T04:21:21.619Z,88.50
2019-04-28T04:23:50.957Z,88.50
2019-04-28T04:26:21.375Z,88.20
2019-04-28T04:28:51.440Z,89.20
2019-04-28T04:31:20.170Z,87.80
2019-04-28T04:33:50.547Z,87.90
2019-04-28T04:36:21.030Z,87.50
2019-04-28T04:38:51.282Z,88.00
2019-04-28T04:41:20.219Z,87.10
2019-04-28T04:43:51.255Z,86.80
2019-04-28T04:46:22.011Z,86.10
2019-04-28T04:48:51.270Z,86.00
2019-04-28T04:51:21.346Z,86.40
2019-04-28T04:53:51.303Z,86.00
2019-04-28T04:56:21.311Z,86.00
2019-04-28T04:58:50.590Z,86.10
2019-04-28T05:01:21.042Z,85.90
2019-04-28T05:04:03.066Z,84.40
2019-04-28T05:06:34.945Z,84.30
2019-04-28T05:09:10.139Z,85.00
2019-04-28T05:11:39.999Z,85.00
2019-04-28T05:14:11.554Z,84.20
2019-04-28T05:16:39.792Z,84.60
2019-04-28T05:19:10.035Z,84.70
2019-04-28T05:21:40.436Z,83.50
2019-04-28T05:24:26.650Z,83.80
2019-04-28T05:26:55.212Z,84.10
2019-04-28T05:29:26.747Z,82.70
2019-04-28T05:31:54.820Z,82.70
2019-04-28T05:34:24.508Z,81.90
2019-04-28T05:36:53.305Z,82.00
2019-04-28T05:39:21.808Z,82.70
2019-04-28T05:41:51.885Z,83.10
2019-04-28T05:44:20.492Z,82.80
2019-04-28T05:46:50.622Z,81.80
2019-04-28T05:49:23.767Z,81.60
2019-04-28T05:52:01.363Z,81.20
2019-04-28T05:54:34.294Z,79.80
2019-04-28T05:57:04.419Z,80.10
2019-04-28T05:59:52.429Z,80.80
2019-04-28T06:02:22.562Z,80.80
2019-04-28T06:04:51.061Z,80.50
2019-04-28T06:07:23.735Z,80.70
2019-04-28T06:09:53.851Z,80.60
2019-04-28T06:12:22.406Z,80.10
2019-04-28T06:14:50.895Z,80.70
2019-04-28T06:17:32.548Z,81.20
2019-04-28T06:20:01.110Z,81.10
2019-04-28T06:22:29.639Z,80.70
2019-04-28T06:24:58.196Z,80.90
2019-04-28T06:27:26.772Z,81.00
2019-04-28T06:29:55.213Z,80.80
2019-04-28T06:32:23.765Z,79.60
2019-04-28T06:34:52.202Z,80.50
2019-04-28T06:37:20.661Z,79.10
2019-04-28T06:39:49.086Z,79.30
2019-04-28T06:42:17.559Z,79.20
2019-04-28T06:44:46.122Z,79.20
2019-04-28T06:47:16.789Z,78.40
2019-04-28T06:49:44.756Z,78.30
2019-04-28T06:52:13.210Z,79.50
2019-04-28T06:54:41.718Z,78.10
2019-04-28T06:57:10.163Z,78.50
2019-04-28T06:59:38.725Z,78.30
2019-04-28T07:02:07.213Z,78.70
2019-04-28T07:04:35.673Z,78.50
2019-04-28T07:07:04.194Z,78.90
2019-04-28T07:09:32.824Z,78.10
2019-04-28T07:12:01.345Z,77.90
2019-04-28T07:14:29.791Z,78.40
2019-04-28T07:16:58.270Z,77.70
2019-04-28T07:19:26.720Z,78.70
2019-04-28T07:21:56.837Z,79.40
2019-04-28T07:24:25.286Z,77.30
2019-04-28T07:26:53.789Z,78.40
2019-04-28T07:29:22.252Z,77.50
2019-04-28T07:31:50.783Z,77.10
2019-04-28T07:34:19.322Z,75.40
2019-04-28T07:36:47.743Z,75.00
2019-04-28T07:39:16.342Z,76.40
2019-04-28T07:41:44.780Z,75.70
2019-04-28T07:44:13.243Z,76.00
2019-04-28T07:46:41.692Z,74.60
2019-04-28T07:49:10.221Z,73.20
2019-04-28T07:51:40.322Z,73.70
2019-04-28T07:54:13.309Z,73.60
2019-04-28T07:56:41.834Z,73.30
2019-04-28T07:59:10.291Z,72.10
2019-04-28T08:01:39.062Z,72.00
2019-04-28T08:04:07.645Z,71.90
2019-04-28T08:06:36.084Z,72.30
2019-04-28T08:09:08.283Z,72.00
2019-04-28T08:11:37.058Z,72.40
2019-04-28T08:14:05.681Z,72.10
2019-04-28T08:16:34.403Z,72.10
2019-04-28T08:19:03.028Z,71.40
2019-04-28T08:21:31.497Z,71.60
2019-04-28T08:23:59.955Z,71.60
2019-04-28T08:26:28.463Z,70.00
2019-04-28T08:28:57.006Z,68.50
2019-04-28T08:31:32.976Z,68.20
2019-04-28T08:34:03.175Z,68.90
2019-04-28T08:36:31.799Z,68.60
2019-04-28T08:39:00.396Z,66.60
2019-04-28T08:41:29.033Z,66.50
2019-04-28T08:43:57.489Z,65.90
2019-04-28T08:46:25.964Z,65.40
2019-04-28T08:48:54.552Z,63.50
2019-04-28T08:51:23.007Z,64.20
2019-04-28T08:53:51.545Z,65.20
2019-04-28T08:56:20.075Z,64.80
2019-04-28T08:58:48.634Z,65.00
2019-04-28T09:01:17.161Z,64.70
2019-04-28T09:03:45.632Z,65.60
2019-04-28T09:06:14.187Z,65.20
2019-04-28T09:08:42.734Z,64.90
2019-04-28T09:11:11.327Z,64.80
2019-04-28T09:13:40.125Z,65.30
2019-04-28T09:16:08.675Z,65.40
2019-04-28T09:18:37.222Z,64.50
2019-04-28T09:21:05.794Z,61.70
2019-04-28T09:23:34.241Z,62.60
2019-04-28T09:26:02.949Z,64.10
2019-04-28T09:28:31.573Z,64.00
2019-04-28T09:31:00.019Z,64.60
2019-04-28T09:33:29.015Z,65.80
2019-04-28T09:35:57.492Z,66.40
2019-04-28T09:38:25.976Z,67.30
2019-04-28T09:40:54.635Z,67.20
2019-04-28T09:43:24.834Z,67.50
2019-04-28T09:45:57.426Z,67.60
2019-04-28T09:48:25.951Z,66.50
2019-04-28T09:50:54.540Z,63.10
2019-04-28T09:53:23.016Z,65.90
2019-04-28T09:55:51.460Z,63.90
2019-04-28T09:58:19.931Z,60.90
2019-04-28T10:00:48.526Z,61.20
2019-04-28T10:03:16.997Z,63.40
2019-04-28T10:05:45.770Z,63.80
2019-04-28T10:08:14.343Z,65.20
2019-04-28T10:10:42.887Z,62.20
2019-04-28T10:13:11.517Z,61.30
2019-04-28T10:15:40.108Z,61.40
2019-04-28T10:18:08.939Z,61.40
2019-04-28T10:20:37.502Z,61.20
2019-04-28T10:23:06.008Z,60.90
2019-04-28T10:25:34.594Z,62.40
2019-04-28T10:28:03.146Z,62.00
2019-04-28T10:30:31.681Z,63.40
2019-04-28T10:33:00.212Z,65.80
2019-04-28T10:35:28.711Z,66.80
2019-04-28T10:37:57.242Z,67.10
2019-04-28T10:40:35.984Z,68.30
2019-04-28T10:43:04.979Z,68.90
2019-04-28T10:45:35.452Z,67.80
2019-04-28T10:48:04.167Z,67.70
2019-04-28T10:50:32.731Z,66.50
2019-04-28T10:53:01.249Z,64.20
2019-04-28T10:55:29.738Z,61.60
2019-04-28T10:57:58.222Z,58.70
2019-04-28T11:00:28.498Z,58.90
2019-04-28T11:03:00.821Z,60.30
2019-04-28T11:05:31.008Z,59.60
2019-04-28T11:07:59.891Z,59.70
2019-04-28T11:10:28.425Z,60.00
2019-04-28T11:12:57.037Z,59.70
2019-04-28T11:15:27.344Z,61.60
2019-04-28T11:17:55.913Z,59.10
2019-04-28T11:20:25.302Z,59.50
2019-04-28T11:22:53.995Z,58.50
2019-04-28T11:25:22.582Z,58.90
2019-04-28T11:27:51.181Z,58.50
2019-04-28T11:30:19.862Z,58.80
2019-04-28T11:32:50.013Z,58.40
2019-04-28T11:35:21.751Z,58.80
2019-04-28T11:37:50.393Z,58.20
2019-04-28T11:40:19.226Z,59.20
2019-04-28T11:42:47.765Z,61.20
2019-04-28T11:45:16.516Z,61.10
2019-04-28T11:47:45.043Z,59.20
2019-04-28T11:50:14.094Z,58.70
2019-04-28T11:52:42.634Z,56.60
2019-04-28T11:55:11.886Z,55.80
2019-04-28T11:57:40.374Z,55.30
2019-04-28T12:00:11.010Z,52.80
2019-04-28T12:02:39.522Z,53.60
2019-04-28T12:05:08.194Z,56.20
2019-04-28T12:07:36.683Z,54.90
2019-04-28T12:10:09.452Z,55.80
2019-04-28T12:12:42.468Z,55.20
2019-04-28T12:15:12.703Z,54.50
2019-04-28T12:17:42.962Z,53.70
2019-04-28T12:20:13.214Z,53.40
2019-04-28T12:22:41.877Z,54.70
2019-04-28T12:25:11.142Z,57.50
2019-04-28T12:27:39.699Z,59.70
2019-04-28T12:30:08.313Z,62.10
2019-04-28T12:32:37.062Z,64.80
2019-04-28T12:35:06.560Z,70.30
2019-04-28T12:37:35.165Z,75.30
2019-04-28T12:40:04.784Z,77.90
2019-04-28T12:42:33.568Z,73.90
2019-04-28T12:45:03.328Z,73.80
2019-04-28T12:47:31.904Z,76.50
2019-04-28T12:50:02.028Z,78.90
2019-04-28T12:52:30.651Z,80.00
2019-04-28T12:55:00.427Z,82.20
2019-04-28T12:57:29.015Z,83.10
2019-04-28T13:00:11.119Z,83.10
2019-04-28T13:02:57.705Z,81.60
2019-04-28T13:05:26.261Z,77.90
2019-04-28T13:07:54.909Z,77.10
2019-04-28T13:10:23.658Z,75.90
2019-04-28T13:12:52.148Z,71.70
2019-04-28T13:15:20.671Z,69.80
2019-04-28T13:17:49.387Z,67.30
2019-04-28T13:20:17.931Z,68.70
2019-04-28T13:22:48.135Z,63.70
2019-04-28T13:25:16.822Z,63.50
2019-04-28T13:27:45.356Z,60.20
2019-04-28T13:30:14.286Z,60.50
2019-04-28T13:32:42.909Z,61.70
2019-04-28T13:35:12.011Z,61.50
2019-04-28T13:37:40.481Z,59.90
2019-04-28T13:40:22.439Z,61.80
2019-04-28T13:42:50.978Z,59.90
2019-04-28T13:45:21.350Z,61.10
2019-04-28T13:47:49.905Z,59.70
2019-04-28T13:50:23.343Z,57.90
2019-04-28T13:52:51.919Z,57.30
2019-04-28T13:55:24.874Z,55.90
2019-04-28T13:57:53.493Z,54.20
2019-04-28T14:00:26.456Z,54.20
2019-04-28T14:03:12.820Z,53.10
2019-04-28T14:05:46.162Z,54.30
2019-04-28T14:08:14.748Z,52.90
2019-04-28T14:10:43.300Z,53.30
2019-04-28T14:13:11.981Z,54.40
2019-04-28T14:15:40.650Z,54.80
2019-04-28T14:18:09.572Z,53.80
2019-04-28T14:20:38.215Z,53.30
2019-04-28T14:23:06.767Z,52.50
2019-04-28T14:25:36.648Z,52.40
2019-04-28T14:28:05.376Z,52.50
2019-04-28T14:30:33.905Z,52.00
2019-04-28T14:33:02.489Z,52.00
2019-04-28T14:35:32.634Z,54.20
2019-04-28T14:38:01.142Z,53.10
2019-04-28T14:40:29.968Z,54.80
2019-04-28T14:42:58.461Z,54.40
2019-04-28T14:45:27.009Z,54.70
2019-04-28T14:47:55.501Z,54.40
2019-04-28T14:50:24.162Z,54.50
2019-04-28T14:52:52.642Z,53.70
2019-04-28T14:55:21.422Z,53.60
2019-04-28T14:57:49.947Z,53.20
2019-04-28T15:00:20.304Z,53.60
2019-04-28T15:02:50.529Z,52.70
2019-04-28T15:05:29.696Z,53.00
2019-04-28T15:08:05.799Z,52.70
2019-04-28T15:10:42.144Z,53.70
2019-04-28T15:13:11.339Z,53.50
2019-04-28T15:15:41.392Z,52.10
2019-04-28T15:18:10.065Z,51.70
2019-04-28T15:20:38.531Z,51.70
2019-04-28T15:23:07.169Z,51.90
2019-04-28T15:25:35.610Z,54.90
2019-04-28T15:28:04.075Z,57.20
2019-04-28T15:30:32.505Z,58.90
2019-04-28T15:33:01.236Z,60.00
2019-04-28T15:35:29.670Z,59.90
2019-04-28T15:38:02.656Z,61.00
2019-04-28T15:40:31.198Z,61.00
2019-04-28T15:42:59.841Z,60.30
2019-04-28T15:45:28.413Z,60.80
2019-04-28T15:47:56.968Z,62.00
2019-04-28T15:50:25.652Z,61.40
2019-04-28T15:52:54.698Z,62.20
2019-04-28T15:55:30.687Z,63.40
2019-04-28T15:58:00.918Z,64.50
2019-04-28T16:00:29.444Z,64.80
2019-04-28T16:02:57.945Z,64.70
2019-04-28T16:05:26.464Z,65.90
2019-04-28T16:07:54.950Z,66.80
2019-04-28T16:10:23.472Z,66.90
2019-04-28T16:12:51.948Z,66.80
2019-04-28T16:15:20.515Z,66.20
2019-04-28T16:17:49.106Z,67.20
2019-04-28T16:20:17.973Z,66.90
2019-04-28T16:22:46.479Z,66.80
2019-04-28T16:25:14.979Z,66.10
2019-04-28T16:27:43.529Z,65.80
2019-04-28T16:30:12.228Z,64.50
2019-04-28T16:32:40.676Z,64.20
2019-04-28T16:35:09.249Z,64.00
2019-04-28T16:37:38.840Z,63.20
2019-04-28T16:40:09.613Z,63.60
2019-04-28T16:42:38.486Z,62.00
2019-04-28T16:45:11.810Z,63.00
2019-04-28T16:47:42.107Z,63.20
2019-04-28T16:50:10.909Z,62.60
2019-04-28T16:52:39.372Z,61.80
2019-04-28T16:55:15.586Z,61.70
2019-04-28T16:57:45.874Z,62.60
2019-04-28T17:00:16.446Z,63.00
2019-04-28T17:02:45.020Z,62.10
2019-04-28T17:05:14.014Z,62.30
2019-04-28T17:07:52.339Z,62.80
2019-04-28T17:10:14.478Z,62.80
2019-04-28T17:12:43.016Z,62.90
2019-04-28T17:15:12.054Z,64.00
2019-04-28T17:17:40.584Z,64.50
2019-04-28T17:20:09.508Z,65.20
2019-04-28T17:22:38.036Z,65.00
2019-04-28T17:25:07.344Z,65.30
2019-04-28T17:27:35.884Z,65.70
2019-04-28T17:30:08.057Z,65.90
2019-04-28T17:32:36.683Z,66.70
2019-04-28T17:35:05.903Z,66.80
2019-04-28T17:37:34.545Z,65.40
2019-04-28T17:40:04.887Z,65.60
2019-04-28T17:42:34.093Z,66.30
2019-04-28T17:45:02.689Z,66.60
2019-04-28T17:47:31.232Z,67.30
2019-04-28T17:50:00.039Z,67.40
2019-04-28T17:52:28.656Z,68.10
2019-04-28T17:54:57.700Z,67.80
2019-04-28T17:57:27.786Z,67.90
2019-04-28T17:59:57.995Z,67.50
2019-04-28T18:02:33.998Z,66.10
2019-04-28T18:05:13.332Z,65.00
2019-04-28T18:07:42.813Z,65.00
2019-04-28T18:10:11.470Z,65.00
2019-04-28T18:12:40.069Z,64.50
2019-04-28T18:15:19.804Z,64.50
2019-04-28T18:18:06.114Z,65.40
2019-04-28T18:20:36.403Z,66.20
2019-04-28T18:23:05.027Z,66.60
2019-04-28T18:25:33.620Z,67.20
2019-04-28T18:28:02.759Z,67.90
2019-04-28T18:30:33.077Z,68.80
2019-04-28T18:33:03.228Z,69.50
2019-04-28T18:35:45.411Z,70.00
2019-04-28T18:38:18.530Z,70.90
2019-04-28T18:40:57.506Z,71.60
2019-04-28T18:43:45.779Z,72.50
2019-04-28T18:46:17.322Z,72.60
2019-04-28T18:48:45.911Z,72.90
2019-04-28T18:51:14.548Z,72.90
2019-04-28T18:53:44.592Z,73.20
2019-04-28T18:56:13.855Z,73.30
2019-04-28T18:58:44.543Z,73.60
2019-04-28T19:01:14.667Z,74.30
2019-04-28T19:03:43.823Z,74.50
2019-04-28T19:06:12.347Z,74.70
2019-04-28T19:08:51.612Z,74.80
2019-04-28T19:11:24.620Z,75.80
2019-04-28T19:13:57.691Z,75.80
2019-04-28T19:16:30.445Z,76.10
2019-04-28T19:19:07.948Z,76.40
2019-04-28T19:21:37.202Z,76.80
2019-04-28T19:24:05.704Z,77.00
2019-04-28T19:26:34.228Z,77.40
2019-04-28T19:29:02.763Z,77.90
2019-04-28T19:31:31.373Z,78.10
2019-04-28T19:34:00.899Z,77.80
2019-04-28T19:36:29.600Z,78.20
2019-04-28T19:39:03.307Z,78.10
2019-04-28T19:41:28.867Z,78.30
2019-04-28T19:43:57.670Z,78.20
2019-04-28T19:46:26.345Z,78.50
2019-04-28T19:48:55.171Z,78.50
2019-04-28T19:51:31.598Z,78.60
2019-04-28T19:53:56.028Z,78.70
2019-04-28T19:56:32.740Z,78.50
2019-04-28T19:59:17.814Z,79.00
2019-04-28T20:01:47.479Z,79.10
2019-04-28T20:04:16.509Z,79.30
2019-04-28T20:06:45.800Z,80.00
2019-04-28T20:09:14.556Z,79.70
2019-04-28T20:11:43.293Z,79.70
2019-04-28T20:14:11.919Z,80.10
2019-04-28T20:16:40.555Z,80.30
2019-04-28T20:19:09.183Z,80.50
2019-04-28T20:21:37.654Z,81.10
2019-04-28T20:24:06.246Z,81.40
2019-04-28T20:26:35.000Z,81.50
2019-04-28T20:29:03.634Z,81.40
2019-04-28T20:31:33.083Z,81.70
2019-04-28T20:34:01.658Z,81.60
2019-04-28T20:36:35.030Z,81.50
2019-04-28T20:39:05.751Z,81.50
2019-04-28T20:41:34.470Z,81.90
2019-04-28T20:44:03.094Z,82.20
2019-04-28T20:46:31.790Z,82.30
2019-04-28T20:49:00.351Z,82.20
2019-04-28T20:51:28.945Z,82.50
2019-04-28T20:53:57.607Z,82.50
2019-04-28T20:56:26.233Z,82.50
2019-04-28T20:58:54.951Z,82.90
2019-04-28T21:01:23.500Z,83.00
2019-04-28T21:03:51.999Z,83.10
2019-04-28T21:06:20.683Z,83.10
2019-04-28T21:08:49.243Z,83.10
2019-04-28T21:11:17.678Z,83.70
2019-04-28T21:13:46.316Z,83.20
2019-04-28T21:16:15.033Z,83.50
2019-04-28T21:18:43.615Z,83.50
2019-04-28T21:21:12.080Z,83.60
2019-04-28T21:23:40.618Z,83.50
2019-04-28T21:26:09.065Z,83.50
2019-04-28T21:28:37.633Z,83.60
2019-04-28T21:31:06.138Z,83.90
2019-04-28T21:33:34.699Z,82.90
2019-04-28T21:36:03.146Z,82.40
2019-04-28T21:38:31.611Z,82.70
2019-04-28T21:41:00.244Z,82.80
2019-04-28T21:43:36.098Z,82.30
2019-04-28T21:46:06.334Z,83.00
2019-04-28T21:48:42.738Z,82.80
2019-04-28T21:51:11.990Z,83.00
2019-04-28T21:53:40.870Z,82.50
2019-04-28T21:56:09.405Z,83.20
2019-04-28T21:58:38.012Z,83.00
2019-04-28T22:01:07.612Z,84.30
2019-04-28T22:03:36.278Z,84.40
2019-04-28T22:06:05.196Z,84.20
2019-04-28T22:08:33.758Z,83.60
2019-04-28T22:11:02.425Z,84.00
2019-04-28T22:13:31.166Z,84.70
2019-04-28T22:15:59.651Z,83.40
2019-04-28T22:18:28.113Z,83.00
2019-04-28T22:20:56.646Z,83.40
2019-04-28T22:23:32.594Z,82.80
2019-04-28T22:26:01.106Z,83.20
2019-04-28T22:28:29.616Z,83.30
2019-04-28T22:30:58.098Z,83.20
2019-04-28T22:33:26.714Z,83.70
2019-04-28T22:35:55.191Z,85.00
2019-04-28T22:38:23.643Z,84.70
2019-04-28T22:40:52.112Z,85.10
2019-04-28T22:43:20.713Z,84.40
2019-04-28T22:45:49.197Z,84.60
2019-04-28T22:48:22.015Z,84.20
2019-04-28T22:50:50.928Z,85.40
2019-04-28T22:53:21.092Z,86.80
2019-04-28T22:55:54.365Z,86.90
2019-04-28T22:58:27.585Z,87.60
2019-04-28T23:00:57.810Z,88.50
2019-04-28T23:03:31.178Z,89.10
2019-04-28T23:05:59.711Z,90.00
2019-04-28T23:08:28.166Z,90.60
2019-04-28T23:10:56.695Z,90.20
2019-04-28T23:13:25.130Z,89.90
2019-04-28T23:15:53.757Z,89.70
2019-04-28T23:18:22.670Z,90.10
2019-04-28T23:20:56.764Z,90.20
2019-04-28T23:23:25.213Z,90.30
2019-04-28T23:25:53.739Z,90.40
2019-04-28T23:28:22.264Z,90.60
2019-04-28T23:30:50.797Z,90.70
2019-04-28T23:33:19.453Z,90.50
2019-04-28T23:35:47.959Z,90.30
2019-04-28T23:38:16.489Z,90.30
2019-04-28T23:40:47.136Z,90.20
2019-04-28T23:43:17.517Z,90.10
2019-04-28T23:45:45.972Z,89.90
2019-04-28T23:48:14.458Z,89.60
2019-04-28T23:50:44.593Z,89.30
2019-04-28T23:53:14.810Z,89.10
2019-04-28T23:55:43.439Z,88.70
2019-04-28T23:58:11.914Z,88.20
